2019-06-19 - 09:03:00

SR: 0308 - SS: 1953

RWY: 25


OBSERVATION: n/a

RVR Mean 1 min: (Runway Visual Range)
A: P2000 - B: P2000 - C: P2000
RVR Mean 10 min:
A: P2000 - B: P2000 - C: P2000
WARNING: n/a
W25: 120-230(160-07kt) 05kt-11kt
W07: 360-360(170-04kt) 01kt-11kt
OTHER: n/a

QFE: (tatsächlicher Luftdruck) 1001.5 hPa = 29.55 inHg
QNH:(Luftdruck auf Meereshöhe) 1007.3 hPa = 29.73 inHg
Temperatur: 27.8 °C
Dew point(Taupunkt): 16.2 °C

METAR:  00096 SADL31 EDDG 190850 METAR EDDG 190850Z 15008KT 110V200 CAVOK 27/16 Q1007 NOSIG= 
METAR (aus weather.noaa.gov):
2019/06/19 08:50 EDDG 190850Z 15008KT 110V200 CAVOK 27/16 Q1007 NOSIG 0

TAF (aus weather.noaa.gov):
2019/06/19 06:27 TAF EDDG 190500Z 1906/2006 VRB03KT CAVOK BECMG 1906/1908 20008KT PROB40 TEMPO 1915/1922 23015G25KT TSRA BKN040CB PROB30 TEMPO 1915/1920 23025G35KT 2000 TSRAGR BKN025CB TEMPO 2002/2006 BKN013 0